createdAt,value
2017-01-04T00:00:24.957Z,0
2017-01-04T00:01:24.960Z,0
2017-01-04T00:02:24.920Z,0
2017-01-04T00:03:24.911Z,0
2017-01-04T00:04:24.883Z,0
2017-01-04T00:05:24.854Z,0
2017-01-04T00:06:24.839Z,0
2017-01-04T00:07:24.810Z,0
2017-01-04T00:08:24.793Z,0
2017-01-04T00:09:25.158Z,0
2017-01-04T00:10:24.747Z,0
2017-01-04T00:11:24.719Z,0
2017-01-04T00:12:24.691Z,0
2017-01-04T00:13:24.670Z,0
2017-01-04T00:14:24.641Z,0
2017-01-04T00:15:24.631Z,0
2017-01-04T00:16:24.598Z,0
2017-01-04T00:17:24.572Z,0
2017-01-04T00:18:24.556Z,0
2017-01-04T00:19:24.529Z,0
2017-01-04T00:20:24.514Z,0
2017-01-04T00:21:24.688Z,0
2017-01-04T00:22:24.458Z,0
2017-01-04T00:23:24.439Z,0
2017-01-04T00:24:24.429Z,0
2017-01-04T00:25:24.391Z,0
2017-01-04T00:26:24.377Z,0
2017-01-04T00:27:24.351Z,0
2017-01-04T00:28:24.325Z,0
2017-01-04T00:29:24.292Z,0
2017-01-04T00:30:24.285Z,0
2017-01-04T00:31:24.249Z,0
2017-01-04T00:32:24.238Z,0
2017-01-04T00:33:24.213Z,0
2017-01-04T00:34:24.184Z,0
2017-01-04T00:35:24.169Z,0
2017-01-04T00:36:24.138Z,0
2017-01-04T00:37:24.121Z,0
2017-01-04T00:38:24.088Z,0
2017-01-04T00:39:24.071Z,0
2017-01-04T00:40:24.046Z,0
2017-01-04T00:41:24.023Z,0
2017-01-04T00:42:23.987Z,0
2017-01-04T00:43:23.962Z,0
2017-01-04T00:44:23.939Z,0
2017-01-04T00:45:23.914Z,0
2017-01-04T00:46:38.808Z,0
2017-01-04T00:47:24.085Z,0
2017-01-04T00:48:24.258Z,0
2017-01-04T00:49:23.827Z,0
2017-01-04T00:50:23.815Z,0
2017-01-04T00:51:23.777Z,0
2017-01-04T00:52:23.766Z,0
2017-01-04T00:53:23.736Z,0
2017-01-04T00:54:23.709Z,0
2017-01-04T00:55:23.685Z,0
2017-01-04T00:56:23.674Z,0
2017-01-04T00:57:23.692Z,0
2017-01-04T00:58:23.627Z,0
2017-01-04T00:59:23.607Z,0
2017-01-04T01:00:23.583Z,0
2017-01-04T01:01:23.559Z,0
2017-01-04T01:02:23.536Z,0
2017-01-04T01:03:23.522Z,0
2017-01-04T01:04:23.490Z,0
2017-01-04T01:05:23.470Z,0
2017-01-04T01:06:23.477Z,0
2017-01-04T01:07:23.423Z,0
2017-01-04T01:08:23.409Z,0
2017-01-04T01:09:23.376Z,0
2017-01-04T01:10:23.360Z,0
2017-01-04T01:11:23.330Z,0
2017-01-04T01:12:23.315Z,0
2017-01-04T01:13:23.293Z,0
2017-01-04T01:14:38.184Z,0
2017-01-04T01:15:23.241Z,0
2017-01-04T01:16:23.236Z,0
2017-01-04T01:17:23.208Z,0
2017-01-04T01:18:23.170Z,0
2017-01-04T01:19:23.145Z,0
2017-01-04T01:20:23.126Z,0
2017-01-04T01:21:23.111Z,0
2017-01-04T01:22:23.089Z,0
2017-01-04T01:23:23.069Z,0
2017-01-04T01:24:23.042Z,0
2017-01-04T01:25:23.007Z,0
2017-01-04T01:26:23.002Z,0
2017-01-04T01:27:22.970Z,0
2017-01-04T01:28:22.950Z,0
2017-01-04T01:29:22.957Z,0
2017-01-04T01:30:22.910Z,0
2017-01-04T01:31:22.878Z,0
2017-01-04T01:32:22.868Z,0
2017-01-04T01:33:22.825Z,0
2017-01-04T01:34:22.811Z,0
2017-01-04T01:35:22.789Z,0
2017-01-04T01:36:22.776Z,0
2017-01-04T01:37:22.750Z,0
2017-01-04T01:38:22.735Z,0
2017-01-04T01:39:22.712Z,0
2017-01-04T01:40:22.692Z,0
2017-01-04T01:41:22.857Z,0
2017-01-04T01:42:22.636Z,0
2017-01-04T01:43:22.632Z,0
2017-01-04T01:44:22.596Z,0
2017-01-04T01:45:22.579Z,0
2017-01-04T01:46:22.552Z,0
2017-01-04T01:47:22.539Z,0
2017-01-04T01:48:22.518Z,0
2017-01-04T01:49:22.491Z,0
2017-01-04T01:50:22.476Z,0
2017-01-04T01:51:22.445Z,0
2017-01-04T01:52:22.429Z,0
2017-01-04T01:53:22.400Z,0
2017-01-04T01:54:22.376Z,0
2017-01-04T01:55:22.361Z,0
2017-01-04T01:56:22.329Z,0
2017-01-04T01:57:22.321Z,0
2017-01-04T01:58:22.297Z,0
2017-01-04T01:59:22.275Z,0
2017-01-04T02:00:22.242Z,0
2017-01-04T02:01:22.231Z,0
2017-01-04T02:02:22.202Z,0
2017-01-04T02:03:22.194Z,0
2017-01-04T02:04:22.163Z,0
2017-01-04T02:05:22.134Z,0
2017-01-04T02:06:22.119Z,0
2017-01-04T02:07:22.287Z,0
2017-01-04T02:08:22.259Z,0
2017-01-04T02:09:22.046Z,0
2017-01-04T02:10:22.033Z,0
2017-01-04T02:11:22.004Z,0
2017-01-04T02:12:21.987Z,0
2017-01-04T02:13:21.957Z,0
2017-01-04T02:14:21.951Z,0
2017-01-04T02:15:21.928Z,0
2017-01-04T02:16:21.902Z,0
2017-01-04T02:17:21.876Z,0
2017-01-04T02:18:21.848Z,0
2017-01-04T02:19:21.862Z,0
2017-01-04T02:20:21.807Z,0
2017-01-04T02:21:22.178Z,0
2017-01-04T02:22:21.767Z,0
2017-01-04T02:23:21.742Z,0
2017-01-04T02:24:21.725Z,0
2017-01-04T02:25:21.699Z,0
2017-01-04T02:26:21.677Z,0
2017-01-04T02:27:21.664Z,0
2017-01-04T02:28:21.630Z,0
2017-01-04T02:29:21.602Z,0
2017-01-04T02:30:21.590Z,0
2017-01-04T02:31:21.567Z,0
2017-01-04T02:32:21.552Z,0
2017-01-04T02:33:21.546Z,0
2017-01-04T02:34:21.505Z,0
2017-01-04T02:35:21.487Z,0
2017-01-04T02:36:21.463Z,0
2017-01-04T02:37:21.442Z,0
2017-01-04T02:38:21.407Z,0
2017-01-04T02:39:21.393Z,0
2017-01-04T02:40:21.371Z,0
2017-01-04T02:41:21.351Z,0
2017-01-04T02:42:21.325Z,0
2017-01-04T02:43:21.310Z,0
2017-01-04T02:44:21.295Z,0
2017-01-04T02:45:21.271Z,0
2017-01-04T02:46:21.251Z,0
2017-01-04T02:47:21.213Z,0
2017-01-04T02:48:21.215Z,0
2017-01-04T02:49:21.220Z,0
2017-01-04T02:50:21.150Z,0
2017-01-04T02:51:21.126Z,0
2017-01-04T02:52:21.103Z,0
2017-01-04T02:53:21.092Z,0
2017-01-04T02:54:21.069Z,0
2017-01-04T02:55:21.054Z,0
2017-01-04T02:56:21.028Z,0
2017-01-04T02:57:21.009Z,0
2017-01-04T02:58:20.980Z,0
2017-01-04T02:59:20.949Z,0
2017-01-04T03:00:20.928Z,0
2017-01-04T03:01:20.912Z,0
2017-01-04T03:02:20.899Z,0
2017-01-04T03:03:20.871Z,0
2017-01-04T03:04:20.831Z,0
2017-01-04T03:05:20.826Z,0
2017-01-04T03:06:20.804Z,0
2017-01-04T03:07:20.771Z,0
2017-01-04T03:08:21.132Z,0
2017-01-04T03:09:20.726Z,0
2017-01-04T03:10:20.553Z,0
2017-01-04T03:11:20.523Z,0
2017-01-04T03:12:20.657Z,0
2017-01-04T03:13:20.633Z,0
2017-01-04T03:14:20.607Z,0
2017-01-04T03:15:20.579Z,0
2017-01-04T03:16:20.954Z,0
2017-01-04T03:17:20.534Z,0
2017-01-04T03:18:20.358Z,0
2017-01-04T03:19:20.486Z,0
2017-01-04T03:20:20.465Z,0
2017-01-04T03:21:20.446Z,0
2017-01-04T03:22:20.427Z,0
2017-01-04T03:23:20.381Z,0
2017-01-04T03:24:20.366Z,0
2017-01-04T03:25:20.335Z,0
2017-01-04T03:26:20.313Z,0
2017-01-04T03:27:20.293Z,0
2017-01-04T03:28:20.274Z,0
2017-01-04T03:29:20.247Z,0
2017-01-04T03:30:20.210Z,0
2017-01-04T03:31:20.197Z,0
2017-01-04T03:32:20.171Z,0
2017-01-04T03:33:20.140Z,0
2017-01-04T03:34:20.128Z,0
2017-01-04T03:35:20.095Z,0
2017-01-04T03:36:20.075Z,0
2017-01-04T03:37:20.037Z,0
2017-01-04T03:38:20.021Z,0
2017-01-04T03:39:19.998Z,0
2017-01-04T03:40:19.969Z,0
2017-01-04T03:41:19.934Z,0
2017-01-04T03:42:19.921Z,0
2017-01-04T03:43:19.887Z,0
2017-01-04T03:44:19.866Z,0
2017-01-04T03:45:19.857Z,0
2017-01-04T03:46:19.818Z,0
2017-01-04T03:47:19.793Z,0
2017-01-04T03:48:19.777Z,0
2017-01-04T03:49:19.738Z,0
2017-01-04T03:50:19.722Z,0
2017-01-04T03:51:19.685Z,0
2017-01-04T03:52:19.681Z,0
2017-01-04T03:53:19.657Z,0
2017-01-04T03:54:19.629Z,0
2017-01-04T03:55:19.585Z,0
2017-01-04T03:56:19.570Z,0
2017-01-04T03:57:19.548Z,0
2017-01-04T03:58:19.527Z,0
2017-01-04T03:59:19.488Z,0
2017-01-04T04:00:19.474Z,0
2017-01-04T04:01:19.445Z,0
2017-01-04T04:02:19.423Z,0
2017-01-04T04:03:19.404Z,0
2017-01-04T04:04:19.378Z,0
2017-01-04T04:05:19.354Z,0
2017-01-04T04:06:19.323Z,0
2017-01-04T04:07:19.289Z,0
2017-01-04T04:08:19.269Z,0
2017-01-04T04:09:19.253Z,0
2017-01-04T04:10:19.215Z,0
2017-01-04T04:11:19.203Z,0
2017-01-04T04:12:19.182Z,0
2017-01-04T04:13:19.151Z,0
2017-01-04T04:14:19.120Z,0
2017-01-04T04:15:19.091Z,0
2017-01-04T04:16:19.078Z,0
2017-01-04T04:17:19.038Z,0
2017-01-04T04:18:19.014Z,0
2017-01-04T04:19:18.982Z,0
2017-01-04T04:20:18.959Z,0
2017-01-04T04:21:18.943Z,0
2017-01-04T04:22:18.920Z,0
2017-01-04T04:23:18.894Z,0
2017-01-04T04:24:18.870Z,0
2017-01-04T04:25:18.846Z,0
2017-01-04T04:26:18.807Z,0
2017-01-04T04:27:18.799Z,0
2017-01-04T04:28:18.763Z,0
2017-01-04T04:29:18.730Z,0
2017-01-04T04:30:18.736Z,0
2017-01-04T04:31:18.682Z,0
2017-01-04T04:32:18.656Z,0
2017-01-04T04:33:18.638Z,0
2017-01-04T04:34:18.601Z,0
2017-01-04T04:35:18.579Z,0
2017-01-04T04:36:18.570Z,0
2017-01-04T04:37:18.529Z,0
2017-01-04T04:38:18.499Z,0
2017-01-04T04:39:18.465Z,0
2017-01-04T04:40:18.455Z,0
2017-01-04T04:41:18.422Z,0
2017-01-04T04:42:18.415Z,0
2017-01-04T04:43:18.368Z,0
2017-01-04T04:44:18.340Z,0
2017-01-04T04:45:18.324Z,0
2017-01-04T04:46:18.289Z,0
2017-01-04T04:47:18.293Z,0
2017-01-04T04:48:18.244Z,0
2017-01-04T04:49:18.227Z,0
2017-01-04T04:50:18.186Z,0
2017-01-04T04:51:18.168Z,0
2017-01-04T04:52:18.148Z,0
2017-01-04T04:53:18.118Z,0
2017-01-04T04:54:18.117Z,0
2017-01-04T04:55:18.076Z,0
2017-01-04T04:56:18.054Z,0
2017-01-04T04:57:18.028Z,0
2017-01-04T04:58:17.983Z,0
2017-01-04T04:59:17.968Z,0
2017-01-04T05:00:17.955Z,0
2017-01-04T05:01:17.920Z,0
2017-01-04T05:02:17.893Z,0
2017-01-04T05:03:17.858Z,0
2017-01-04T05:04:17.839Z,0
2017-01-04T05:05:17.804Z,0
2017-01-04T05:06:17.776Z,0
2017-01-04T05:07:17.758Z,0
2017-01-04T05:08:17.741Z,0
2017-01-04T05:09:17.709Z,0
2017-01-04T05:10:17.686Z,0
2017-01-04T05:11:17.667Z,0
2017-01-04T05:12:17.636Z,0
2017-01-04T05:13:17.624Z,0
2017-01-04T05:14:17.578Z,0
2017-01-04T05:15:17.555Z,0
2017-01-04T05:16:17.541Z,0
2017-01-04T05:17:17.508Z,0
2017-01-04T05:18:17.495Z,0
2017-01-04T05:19:17.559Z,0
2017-01-04T05:20:17.423Z,0
2017-01-04T05:21:17.415Z,0
2017-01-04T05:22:17.375Z,0
2017-01-04T05:23:17.358Z,0
2017-01-04T05:24:17.332Z,0
2017-01-04T05:25:17.321Z,0
2017-01-04T05:26:17.662Z,0
2017-01-04T05:27:17.288Z,0
2017-01-04T05:28:17.236Z,0
2017-01-04T05:29:17.208Z,0
2017-01-04T05:30:17.179Z,0
2017-01-04T05:31:17.157Z,0
2017-01-04T05:32:17.132Z,0
2017-01-04T05:33:17.114Z,0
2017-01-04T05:34:17.076Z,0
2017-01-04T05:35:17.059Z,0
2017-01-04T05:36:17.017Z,0
2017-01-04T05:37:17.018Z,0
2017-01-04T05:38:16.975Z,0
2017-01-04T05:39:16.955Z,0
2017-01-04T05:40:16.939Z,0
2017-01-04T05:41:16.913Z,0
2017-01-04T05:42:16.873Z,0
2017-01-04T05:43:16.852Z,0
2017-01-04T05:44:16.821Z,0
2017-01-04T05:45:16.804Z,0
2017-01-04T05:46:16.769Z,0
2017-01-04T05:47:16.755Z,0
2017-01-04T05:48:16.719Z,0
2017-01-04T05:49:16.689Z,0
2017-01-04T05:50:16.671Z,0
2017-01-04T05:51:16.632Z,0
2017-01-04T05:52:16.606Z,0
2017-01-04T05:53:16.591Z,0
2017-01-04T05:54:16.562Z,0
2017-01-04T05:55:16.542Z,0
2017-01-04T05:56:16.508Z,0
2017-01-04T05:57:16.485Z,0
2017-01-04T05:58:16.455Z,0
2017-01-04T05:59:16.434Z,0
2017-01-04T06:00:16.427Z,0
2017-01-04T06:01:16.384Z,0
2017-01-04T06:02:16.350Z,0
2017-01-04T06:03:16.335Z,0
2017-01-04T06:04:16.306Z,0
2017-01-04T06:05:16.275Z,0
2017-01-04T06:06:16.260Z,0
2017-01-04T06:07:16.242Z,0
2017-01-04T06:08:16.200Z,0
2017-01-04T06:09:16.177Z,0
2017-01-04T06:10:16.148Z,0
2017-01-04T06:11:16.120Z,0
2017-01-04T06:12:16.105Z,0
2017-01-04T06:13:16.081Z,0
2017-01-04T06:14:16.040Z,0
2017-01-04T06:15:16.038Z,0
2017-01-04T06:16:15.837Z,0
2017-01-04T06:17:15.987Z,0
2017-01-04T06:18:15.943Z,0
2017-01-04T06:19:15.912Z,0
2017-01-04T06:20:15.902Z,0
2017-01-04T06:21:15.868Z,0
2017-01-04T06:22:15.844Z,0
2017-01-04T06:23:15.819Z,0
2017-01-04T06:24:15.798Z,0
2017-01-04T06:25:15.764Z,0
2017-01-04T06:26:15.744Z,0
2017-01-04T06:27:15.716Z,0
2017-01-04T06:28:15.704Z,0
2017-01-04T06:29:15.657Z,0
2017-01-04T06:30:15.643Z,0
2017-01-04T06:31:15.624Z,0
2017-01-04T06:32:15.595Z,0
2017-01-04T06:33:15.567Z,4
2017-01-04T06:34:15.543Z,4
2017-01-04T06:35:15.529Z,0
2017-01-04T06:36:15.493Z,4
2017-01-04T06:37:15.466Z,4
2017-01-04T06:38:15.435Z,4
2017-01-04T06:39:15.417Z,8
2017-01-04T06:40:15.379Z,8
2017-01-04T06:41:15.361Z,12
2017-01-04T06:42:15.351Z,16
2017-01-04T06:43:15.310Z,20
2017-01-04T06:44:15.283Z,20
2017-01-04T06:45:15.262Z,24
2017-01-04T06:46:15.238Z,28
2017-01-04T06:47:15.218Z,36
2017-01-04T06:48:15.183Z,40
2017-01-04T06:49:15.166Z,48
2017-01-04T06:50:15.132Z,56
2017-01-04T06:51:15.115Z,64
2017-01-04T06:52:15.090Z,68
2017-01-04T06:53:15.061Z,76
2017-01-04T06:54:15.046Z,84
2017-01-04T06:55:15.009Z,88
2017-01-04T06:56:14.992Z,92
2017-01-04T06:57:14.958Z,104
2017-01-04T06:58:14.972Z,120
2017-01-04T06:59:14.922Z,136
2017-01-04T07:00:14.878Z,144
2017-01-04T07:01:14.874Z,160
2017-01-04T07:02:15.241Z,168
2017-01-04T07:03:15.207Z,184
2017-01-04T07:04:14.786Z,200
2017-01-04T07:05:14.780Z,220
2017-01-04T07:06:14.746Z,260
2017-01-04T07:07:14.721Z,280
2017-01-04T07:08:14.692Z,300
2017-01-04T07:09:14.664Z,304
2017-01-04T07:10:14.648Z,328
2017-01-04T07:11:14.610Z,336
2017-01-04T07:12:14.599Z,384
2017-01-04T07:13:14.555Z,412
2017-01-04T07:14:14.535Z,408
2017-01-04T07:15:14.528Z,428
2017-01-04T07:16:14.486Z,468
2017-01-04T07:17:14.467Z,512
2017-01-04T07:18:14.435Z,508
2017-01-04T07:19:14.407Z,528
2017-01-04T07:20:14.383Z,532
2017-01-04T07:21:14.355Z,524
2017-01-04T07:22:14.347Z,520
2017-01-04T07:23:14.308Z,528
2017-01-04T07:24:14.283Z,540
2017-01-04T07:25:14.259Z,560
2017-01-04T07:26:14.239Z,600
2017-01-04T07:27:14.220Z,636
2017-01-04T07:28:14.181Z,672
2017-01-04T07:29:14.160Z,720
2017-01-04T07:30:14.144Z,772
2017-01-04T07:31:14.110Z,808
2017-01-04T07:32:14.085Z,912
2017-01-04T07:33:14.050Z,980
2017-01-04T07:34:14.067Z,1000
2017-01-04T07:35:14.012Z,984
2017-01-04T07:36:13.983Z,972
2017-01-04T07:37:13.946Z,992
2017-01-04T07:38:13.926Z,1036
2017-01-04T07:39:13.905Z,1064
2017-01-04T07:40:13.875Z,1080
2017-01-04T07:41:13.848Z,1116
2017-01-04T07:42:13.840Z,1252
2017-01-04T07:43:13.789Z,1444
2017-01-04T07:44:13.769Z,1656
2017-01-04T07:45:13.756Z,1772
2017-01-04T07:46:13.725Z,1804
2017-01-04T07:47:13.711Z,1904
2017-01-04T07:48:13.663Z,1984
2017-01-04T07:49:13.672Z,2000
2017-01-04T07:50:13.616Z,2024
2017-01-04T07:51:13.606Z,2044
2017-01-04T07:52:13.563Z,2024
2017-01-04T07:53:13.548Z,2000
2017-01-04T07:54:13.505Z,1868
2017-01-04T07:55:13.504Z,1792
2017-01-04T07:56:13.460Z,1800
2017-01-04T07:57:13.448Z,1828
2017-01-04T07:58:13.411Z,1784
2017-01-04T07:59:13.393Z,1764
2017-01-04T08:00:13.361Z,1796
2017-01-04T08:01:13.341Z,1736
2017-01-04T08:02:13.310Z,1820
2017-01-04T08:03:13.282Z,1756
2017-01-04T08:04:13.270Z,1540
2017-01-04T08:05:13.237Z,1384
2017-01-04T08:06:13.217Z,1320
2017-01-04T08:07:13.178Z,1288
2017-01-04T08:08:13.151Z,1304
2017-01-04T08:09:13.130Z,1360
2017-01-04T08:10:13.104Z,1388
2017-01-04T08:11:13.076Z,1476
2017-01-04T08:12:13.057Z,1624
2017-01-04T08:13:13.027Z,1796
2017-01-04T08:14:12.998Z,1984
2017-01-04T08:15:12.989Z,2156
2017-01-04T08:16:12.942Z,2404
2017-01-04T08:17:13.318Z,2392
2017-01-04T08:18:13.294Z,2464
2017-01-04T08:19:12.865Z,2512
2017-01-04T08:20:12.861Z,2452
2017-01-04T08:21:12.830Z,2480
2017-01-04T08:22:12.794Z,2608
2017-01-04T08:23:12.779Z,2808
2017-01-04T08:24:12.751Z,3040
2017-01-04T08:25:12.738Z,3124
2017-01-04T08:26:12.694Z,3372
2017-01-04T08:27:12.672Z,3608
2017-01-04T08:28:12.646Z,3468
2017-01-04T08:29:12.637Z,3524
2017-01-04T08:30:12.604Z,3680
2017-01-04T08:31:12.562Z,3896
2017-01-04T08:32:12.538Z,3884
2017-01-04T08:33:12.519Z,3776
2017-01-04T08:34:12.508Z,3756
2017-01-04T08:35:12.465Z,3788
2017-01-04T08:36:12.484Z,3884
2017-01-04T08:37:12.425Z,3896
2017-01-04T08:38:12.406Z,4184
2017-01-04T08:39:12.364Z,4444
2017-01-04T08:40:12.343Z,4732
2017-01-04T08:41:12.306Z,5352
2017-01-04T08:42:12.285Z,5480
2017-01-04T08:43:12.266Z,5100
2017-01-04T08:44:12.236Z,4928
2017-01-04T08:45:12.202Z,4720
2017-01-04T08:46:12.190Z,4676
2017-01-04T08:47:12.171Z,4656
2017-01-04T08:48:12.127Z,4796
2017-01-04T08:49:12.113Z,4932
2017-01-04T08:50:12.093Z,4832
2017-01-04T08:51:12.078Z,5204
2017-01-04T08:52:12.046Z,5744
2017-01-04T08:53:12.016Z,6536
2017-01-04T08:54:11.989Z,6892
2017-01-04T08:55:11.965Z,6748
2017-01-04T08:56:11.938Z,6536
2017-01-04T08:57:11.901Z,6188
2017-01-04T08:58:11.901Z,5752
2017-01-04T08:59:11.855Z,5564
2017-01-04T09:00:11.830Z,4888
2017-01-04T09:01:11.843Z,4604
2017-01-04T09:02:11.784Z,4620
2017-01-04T09:03:11.761Z,4552
2017-01-04T09:04:11.737Z,4772
2017-01-04T09:05:11.712Z,5332
2017-01-04T09:06:11.688Z,6204
2017-01-04T09:07:11.654Z,7204
2017-01-04T09:08:11.625Z,7692
2017-01-04T09:09:11.603Z,8264
2017-01-04T09:10:11.571Z,8844
2017-01-04T09:11:11.554Z,9452
2017-01-04T09:12:11.523Z,11068
2017-01-04T09:13:11.501Z,12720
2017-01-04T09:14:11.487Z,12428
2017-01-04T09:15:11.464Z,13072
2017-01-04T09:16:11.433Z,11772
2017-01-04T09:17:11.405Z,10412
2017-01-04T09:18:11.383Z,9700
2017-01-04T09:19:11.356Z,9228
2017-01-04T09:20:11.333Z,8812
2017-01-04T09:21:11.302Z,8556
2017-01-04T09:22:11.296Z,8552
2017-01-04T09:23:11.251Z,9360
2017-01-04T09:24:11.221Z,9788
2017-01-04T09:25:11.209Z,9668
2017-01-04T09:26:11.183Z,9768
2017-01-04T09:27:11.170Z,10880
2017-01-04T09:28:11.136Z,10404
2017-01-04T09:29:11.113Z,10520
2017-01-04T09:30:11.084Z,9956
2017-01-04T09:31:11.065Z,9104
2017-01-04T09:32:11.032Z,8440
2017-01-04T09:33:11.019Z,7668
2017-01-04T09:34:11.037Z,7832
2017-01-04T09:35:10.967Z,8848
2017-01-04T09:36:10.921Z,9268
2017-01-04T09:37:10.897Z,9560
2017-01-04T09:38:10.884Z,9700
2017-01-04T09:39:10.858Z,10320
2017-01-04T09:40:10.842Z,10168
2017-01-04T09:41:10.816Z,9816
2017-01-04T09:42:10.784Z,9868
2017-01-04T09:43:10.756Z,9724
2017-01-04T09:44:10.741Z,9872
2017-01-04T09:45:10.706Z,9052
2017-01-04T09:46:10.711Z,9656
2017-01-04T09:47:10.670Z,10952
2017-01-04T09:48:10.628Z,12324
2017-01-04T09:49:10.757Z,13844
2017-01-04T09:50:10.590Z,14840
2017-01-04T09:51:10.568Z,13736
2017-01-04T09:52:10.537Z,12880
2017-01-04T09:53:10.510Z,11376
2017-01-04T09:54:10.496Z,10952
2017-01-04T09:55:10.876Z,11212
2017-01-04T09:56:10.436Z,10680
2017-01-04T09:57:10.422Z,10584
2017-01-04T09:58:10.391Z,11120
2017-01-04T09:59:10.358Z,11192
2017-01-04T10:00:10.335Z,13048
2017-01-04T10:01:10.298Z,12960
2017-01-04T10:02:10.298Z,13460
2017-01-04T10:03:10.249Z,12368
2017-01-04T10:04:10.221Z,11964
2017-01-04T10:05:10.208Z,10964
2017-01-04T10:06:10.173Z,11568
2017-01-04T10:07:10.159Z,10744
2017-01-04T10:08:10.131Z,10892
2017-01-04T10:09:10.101Z,10316
2017-01-04T10:10:10.087Z,11320
2017-01-04T10:11:10.047Z,12132
2017-01-04T10:12:10.068Z,11948
2017-01-04T10:13:10.016Z,11060
2017-01-04T10:14:09.990Z,11780
2017-01-04T10:15:09.966Z,13020
2017-01-04T10:16:09.936Z,12444
2017-01-04T10:17:09.905Z,12200
2017-01-04T10:18:09.877Z,12236
2017-01-04T10:19:09.867Z,11684
2017-01-04T10:20:09.841Z,11092
2017-01-04T10:21:09.798Z,10984
2017-01-04T10:22:09.785Z,10592
2017-01-04T10:23:09.765Z,9760
2017-01-04T10:24:09.740Z,9228
2017-01-04T10:25:09.712Z,8940
2017-01-04T10:26:09.681Z,8400
2017-01-04T10:27:09.662Z,8816
2017-01-04T10:28:09.647Z,10436
2017-01-04T10:29:09.598Z,10288
2017-01-04T10:30:09.582Z,10092
2017-01-04T10:31:09.560Z,10008
2017-01-04T10:32:09.525Z,10188
2017-01-04T10:33:09.497Z,10348
2017-01-04T10:34:09.481Z,10532
2017-01-04T10:35:09.458Z,9340
2017-01-04T10:36:09.429Z,8832
2017-01-04T10:37:09.410Z,9108
2017-01-04T10:38:09.375Z,8736
2017-01-04T10:39:09.359Z,9396
2017-01-04T10:40:09.337Z,10480
2017-01-04T10:41:09.343Z,10380
2017-01-04T10:42:09.281Z,10748
2017-01-04T10:43:09.259Z,10148
2017-01-04T10:44:09.222Z,9252
2017-01-04T10:45:09.193Z,8436
2017-01-04T10:46:09.173Z,8980
2017-01-04T10:47:09.160Z,9324
2017-01-04T10:48:09.115Z,8748
2017-01-04T10:49:09.140Z,8552
2017-01-04T10:50:09.083Z,8976
2017-01-04T10:51:09.046Z,9380
2017-01-04T10:52:09.017Z,9812
2017-01-04T10:53:09.007Z,9564
2017-01-04T10:54:08.972Z,8984
2017-01-04T10:55:08.943Z,8404
2017-01-04T10:56:08.929Z,8048
2017-01-04T10:57:09.313Z,8460
2017-01-04T10:58:08.868Z,9240
2017-01-04T10:59:08.839Z,9988
2017-01-04T11:00:08.845Z,10320
2017-01-04T11:01:08.786Z,10264
2017-01-04T11:02:08.765Z,10412
2017-01-04T11:03:08.744Z,9976
2017-01-04T11:04:08.714Z,9500
2017-01-04T11:05:08.696Z,9952
2017-01-04T11:06:08.669Z,9544
2017-01-04T11:07:08.638Z,10372
2017-01-04T11:08:08.608Z,11176
2017-01-04T11:09:08.577Z,11440
2017-01-04T11:10:08.557Z,12300
2017-01-04T11:11:08.537Z,10712
2017-01-04T11:12:08.511Z,10488
2017-01-04T11:13:08.488Z,10520
2017-01-04T11:14:08.453Z,11076
2017-01-04T11:15:08.463Z,10776
2017-01-04T11:16:08.413Z,10236
2017-01-04T11:17:08.372Z,10848
2017-01-04T11:18:08.360Z,10864
2017-01-04T11:19:08.319Z,10528
2017-01-04T11:20:08.301Z,10156
2017-01-04T11:21:08.309Z,10328
2017-01-04T11:22:08.248Z,10072
2017-01-04T11:23:08.222Z,9888
2017-01-04T11:24:08.199Z,9580
2017-01-04T11:25:08.172Z,9872
2017-01-04T11:26:08.139Z,9448
2017-01-04T11:27:08.109Z,9452
2017-01-04T11:28:08.088Z,8924
2017-01-04T11:29:08.067Z,9260
2017-01-04T11:30:08.043Z,9144
2017-01-04T11:31:08.020Z,9836
2017-01-04T11:32:08.003Z,9908
2017-01-04T11:33:07.974Z,9892
2017-01-04T11:34:07.938Z,9724
2017-01-04T11:35:07.933Z,9308
2017-01-04T11:36:07.943Z,9368
2017-01-04T11:37:07.856Z,9080
2017-01-04T11:38:07.839Z,8816
2017-01-04T11:39:07.811Z,9428
2017-01-04T11:40:07.772Z,9512
2017-01-04T11:41:07.747Z,10112
2017-01-04T11:42:07.724Z,9976
2017-01-04T11:43:07.699Z,10164
2017-01-04T11:44:07.705Z,9796
2017-01-04T11:45:07.656Z,10744
2017-01-04T11:46:07.615Z,10804
2017-01-04T11:47:07.788Z,11324
2017-01-04T11:48:07.781Z,11060
2017-01-04T11:49:07.549Z,11724
2017-01-04T11:50:07.523Z,11812
2017-01-04T11:51:07.498Z,11368
2017-01-04T11:52:07.473Z,10984
2017-01-04T11:53:07.441Z,11732
2017-01-04T11:54:07.415Z,10880
2017-01-04T11:55:07.385Z,10984
2017-01-04T11:56:07.368Z,11100
2017-01-04T11:57:07.332Z,11308
2017-01-04T11:58:07.299Z,11444
2017-01-04T11:59:07.289Z,11560
2017-01-04T12:00:07.256Z,10824
2017-01-04T12:01:07.228Z,10480
2017-01-04T12:02:07.211Z,10844
2017-01-04T12:03:07.174Z,11228
2017-01-04T12:04:07.164Z,11320
2017-01-04T12:05:07.516Z,11260
2017-01-04T12:06:07.094Z,11248
2017-01-04T12:07:07.076Z,10996
2017-01-04T12:08:07.051Z,11452
2017-01-04T12:09:07.028Z,11304
2017-01-04T12:10:06.990Z,11184
2017-01-04T12:11:06.973Z,10904
2017-01-04T12:12:06.946Z,10188
2017-01-04T12:13:07.101Z,10360
2017-01-04T12:14:07.104Z,10200
2017-01-04T12:15:06.862Z,10280
2017-01-04T12:16:06.840Z,10428
2017-01-04T12:17:06.808Z,10796
2017-01-04T12:18:06.789Z,10880
2017-01-04T12:19:06.755Z,10964
2017-01-04T12:20:06.737Z,11484
2017-01-04T12:21:06.703Z,11640
2017-01-04T12:22:06.673Z,11720
2017-01-04T12:23:06.660Z,11548
2017-01-04T12:24:06.631Z,11544
2017-01-04T12:25:06.616Z,11692
2017-01-04T12:26:06.587Z,12160
2017-01-04T12:27:06.563Z,12440
2017-01-04T12:28:06.521Z,12436
2017-01-04T12:29:06.502Z,13692
2017-01-04T12:30:06.475Z,12908
2017-01-04T12:31:06.452Z,13464
2017-01-04T12:32:06.421Z,14348
2017-01-04T12:33:06.402Z,14240
2017-01-04T12:34:06.398Z,14016
2017-01-04T12:35:06.344Z,13508
2017-01-04T12:36:06.320Z,13168
2017-01-04T12:37:06.491Z,12280
2017-01-04T12:38:06.261Z,11708
2017-01-04T12:39:06.446Z,10940
2017-01-04T12:40:06.226Z,10712
2017-01-04T12:41:06.189Z,10400
2017-01-04T12:42:06.170Z,10244
2017-01-04T12:43:06.132Z,10544
2017-01-04T12:44:06.108Z,9896
2017-01-04T12:45:06.092Z,9724
2017-01-04T12:46:05.920Z,9532
2017-01-04T12:47:06.045Z,8924
2017-01-04T12:48:06.022Z,8964
2017-01-04T12:49:05.973Z,8940
2017-01-04T12:50:05.958Z,9188
2017-01-04T12:51:05.938Z,9500
2017-01-04T12:52:05.909Z,9856
2017-01-04T12:53:05.886Z,9552
2017-01-04T12:54:05.859Z,9452
2017-01-04T12:55:05.835Z,9548
2017-01-04T12:56:05.797Z,9272
2017-01-04T12:57:05.788Z,9508
2017-01-04T12:58:05.745Z,9364
2017-01-04T12:59:05.729Z,9048
2017-01-04T13:00:05.541Z,8344
2017-01-04T13:01:05.512Z,7996
2017-01-04T13:02:05.495Z,7796
2017-01-04T13:03:05.625Z,7532
2017-01-04T13:04:05.774Z,7456
2017-01-04T13:05:05.783Z,7564
2017-01-04T13:06:05.540Z,7280
2017-01-04T13:07:05.509Z,7224
2017-01-04T13:08:05.488Z,6660
2017-01-04T13:09:05.461Z,6672
2017-01-04T13:10:05.443Z,6620
2017-01-04T13:11:05.412Z,6284
2017-01-04T13:12:05.378Z,6036
2017-01-04T13:13:05.347Z,6084
2017-01-04T13:14:05.326Z,6300
2017-01-04T13:15:05.304Z,6144
2017-01-04T13:16:05.273Z,6080
2017-01-04T13:17:05.628Z,6016
2017-01-04T13:18:05.616Z,5988
2017-01-04T13:19:05.212Z,6052
2017-01-04T13:20:05.165Z,6128
2017-01-04T13:21:05.140Z,6256
2017-01-04T13:22:05.106Z,6460
2017-01-04T13:23:05.093Z,6540
2017-01-04T13:24:05.064Z,6528
2017-01-04T13:25:05.042Z,6828
2017-01-04T13:26:05.018Z,6944
2017-01-04T13:27:04.991Z,6952
2017-01-04T13:28:04.966Z,6824
2017-01-04T13:29:04.969Z,6956
2017-01-04T13:30:04.939Z,6716
2017-01-04T13:31:04.879Z,6340
2017-01-04T13:32:04.846Z,6164
2017-01-04T13:33:04.820Z,5992
2017-01-04T13:34:04.849Z,6116
2017-01-04T13:35:04.769Z,5916
2017-01-04T13:36:05.121Z,5688
2017-01-04T13:37:04.709Z,5840
2017-01-04T13:38:04.702Z,5256
2017-01-04T13:39:04.662Z,5220
2017-01-04T13:40:04.629Z,5536
2017-01-04T13:41:04.612Z,5700
2017-01-04T13:42:04.591Z,5804
2017-01-04T13:43:04.558Z,5908
2017-01-04T13:44:04.540Z,6164
2017-01-04T13:45:04.514Z,5968
2017-01-04T13:46:04.486Z,5936
2017-01-04T13:47:04.464Z,6164
2017-01-04T13:48:04.433Z,6292
2017-01-04T13:49:04.406Z,6164
2017-01-04T13:50:04.385Z,6128
2017-01-04T13:51:04.344Z,6236
2017-01-04T13:52:04.317Z,6140
2017-01-04T13:53:04.299Z,6180
2017-01-04T13:54:04.275Z,5952
2017-01-04T13:55:04.457Z,5524
2017-01-04T13:56:04.212Z,5308